createdAt,value
2018-09-15T00:01:48.003Z,75.10
2018-09-15T00:04:16.363Z,75.40
2018-09-15T00:06:44.668Z,75.80
2018-09-15T00:09:13.845Z,76.60
2018-09-15T00:11:41.925Z,75.90
2018-09-15T00:14:09.972Z,76.70
2018-09-15T00:16:38.087Z,76.50
2018-09-15T00:19:06.495Z,76.80
2018-09-15T00:21:35.047Z,77.90
2018-09-15T00:24:03.107Z,78.70
2018-09-15T00:26:31.225Z,78.70
2018-09-15T00:28:59.481Z,78.70
2018-09-15T00:31:27.512Z,78.80
2018-09-15T00:33:55.750Z,79.20
2018-09-15T00:36:23.765Z,80.30
2018-09-15T00:38:51.835Z,80.40
2018-09-15T00:41:19.938Z,81.00
2018-09-15T00:43:48.066Z,80.50
2018-09-15T00:46:16.075Z,80.90
2018-09-15T00:48:44.339Z,80.10
2018-09-15T00:51:12.359Z,80.50
2018-09-15T00:53:40.546Z,81.30
2018-09-15T00:56:08.771Z,81.70
2018-09-15T00:58:36.799Z,81.20
2018-09-15T01:01:04.964Z,81.50
2018-09-15T01:03:33.398Z,81.90
2018-09-15T01:06:01.786Z,81.00
2018-09-15T01:08:29.862Z,81.40
2018-09-15T01:10:58.382Z,82.20
2018-09-15T01:13:26.482Z,82.20
2018-09-15T01:15:54.763Z,82.00
2018-09-15T01:18:22.938Z,82.50
2018-09-15T01:20:51.003Z,81.50
2018-09-15T01:23:19.228Z,80.70
2018-09-15T01:25:47.454Z,80.60
2018-09-15T01:28:15.492Z,80.60
2018-09-15T01:30:43.775Z,80.90
2018-09-15T01:33:11.882Z,81.40
2018-09-15T01:35:40.035Z,81.40
2018-09-15T01:38:08.080Z,81.20
2018-09-15T01:40:36.135Z,81.50
2018-09-15T01:43:04.273Z,81.90
2018-09-15T01:45:32.325Z,82.60
2018-09-15T01:48:00.446Z,82.90
2018-09-15T01:50:28.471Z,82.20
2018-09-15T01:52:56.557Z,82.90
2018-09-15T01:55:24.714Z,82.50
2018-09-15T01:57:52.794Z,82.90
2018-09-15T02:00:20.922Z,83.20
2018-09-15T02:02:49.019Z,84.20
2018-09-15T02:05:17.145Z,84.10
2018-09-15T02:07:45.227Z,84.80
2018-09-15T02:10:13.647Z,84.70
2018-09-15T02:12:41.885Z,85.30
2018-09-15T02:15:09.896Z,84.90
2018-09-15T02:17:38.019Z,85.10
2018-09-15T02:20:06.040Z,85.40
2018-09-15T02:22:34.252Z,85.50
2018-09-15T02:25:03.052Z,85.70
2018-09-15T02:27:31.273Z,86.10
2018-09-15T02:29:59.441Z,86.40
2018-09-15T02:32:27.482Z,86.60
2018-09-15T02:34:55.519Z,86.90
2018-09-15T02:37:23.675Z,87.30
2018-09-15T02:39:51.843Z,87.30
2018-09-15T02:42:19.993Z,87.00
2018-09-15T02:44:48.096Z,87.60
2018-09-15T02:47:16.116Z,87.80
2018-09-15T02:49:44.167Z,88.00
2018-09-15T02:52:12.173Z,88.10
2018-09-15T02:54:40.226Z,88.10
2018-09-15T02:57:08.250Z,88.30
2018-09-15T02:59:36.289Z,88.50
2018-09-15T03:02:04.675Z,88.40
2018-09-15T03:04:33.511Z,88.50
2018-09-15T03:07:01.754Z,88.40
2018-09-15T03:09:29.909Z,88.50
2018-09-15T03:11:58.098Z,88.50
2018-09-15T03:14:26.166Z,88.40
2018-09-15T03:16:54.422Z,88.10
2018-09-15T03:19:23.134Z,87.70
2018-09-15T03:21:51.254Z,87.30
2018-09-15T03:24:19.314Z,86.90
2018-09-15T03:26:47.665Z,86.30
2018-09-15T03:29:15.866Z,86.20
2018-09-15T03:31:44.003Z,86.10
2018-09-15T03:34:12.365Z,86.00
2018-09-15T03:36:40.416Z,85.70
2018-09-15T03:39:10.225Z,85.50
2018-09-15T03:41:38.318Z,85.60
2018-09-15T03:44:06.541Z,85.10
2018-09-15T03:46:34.817Z,84.90
2018-09-15T03:49:03.812Z,84.90
2018-09-15T03:51:31.851Z,84.30
2018-09-15T03:54:00.131Z,84.20
2018-09-15T03:56:28.162Z,83.80
2018-09-15T03:58:56.897Z,83.30
2018-09-15T04:01:24.979Z,83.30
2018-09-15T04:03:53.112Z,83.10
2018-09-15T04:06:21.136Z,82.80
2018-09-15T04:08:49.268Z,82.40
2018-09-15T04:11:17.280Z,82.30
2018-09-15T04:13:46.291Z,82.60
2018-09-15T04:16:14.631Z,82.20
2018-09-15T04:18:42.746Z,81.80
2018-09-15T04:21:10.828Z,81.50
2018-09-15T04:23:38.920Z,80.80
2018-09-15T04:26:07.297Z,80.30
2018-09-15T04:28:35.633Z,79.60
2018-09-15T04:31:03.862Z,78.40
2018-09-15T04:33:31.886Z,77.10
2018-09-15T04:35:59.912Z,76.50
2018-09-15T04:38:28.008Z,75.60
2018-09-15T04:40:56.223Z,75.30
2018-09-15T04:43:24.302Z,74.80
2018-09-15T04:45:52.498Z,74.20
2018-09-15T04:48:20.552Z,73.90
2018-09-15T04:50:48.756Z,73.70
2018-09-15T04:53:17.024Z,73.30
2018-09-15T04:55:45.066Z,72.90
2018-09-15T04:58:13.151Z,72.60
2018-09-15T05:01:11.957Z,72.40
2018-09-15T05:03:40.016Z,72.10
2018-09-15T05:06:08.220Z,72.30
2018-09-15T05:08:36.609Z,72.00
2018-09-15T05:11:04.908Z,71.90
2018-09-15T05:13:33.239Z,71.70
2018-09-15T05:16:01.727Z,71.90
2018-09-15T05:18:29.778Z,72.50
2018-09-15T05:20:57.933Z,71.80
2018-09-15T05:23:26.044Z,71.70
2018-09-15T05:25:54.065Z,71.70
2018-09-15T05:28:22.107Z,71.70
2018-09-15T05:30:51.214Z,71.30
2018-09-15T05:33:19.235Z,70.60
2018-09-15T05:35:47.351Z,70.20
2018-09-15T05:38:15.634Z,70.10
2018-09-15T05:40:43.751Z,68.90
2018-09-15T05:43:11.834Z,66.70
2018-09-15T05:45:40.194Z,62.90
2018-09-15T05:48:08.351Z,60.60
2018-09-15T05:50:36.475Z,60.40
2018-09-15T05:53:04.813Z,61.40
2018-09-15T05:55:33.114Z,63.00
2018-09-15T05:58:01.159Z,63.20
2018-09-15T06:00:29.328Z,65.80
2018-09-15T06:02:57.388Z,66.50
2018-09-15T06:05:25.459Z,61.20
2018-09-15T06:07:53.563Z,57.60
2018-09-15T06:10:21.668Z,53.50
2018-09-15T06:12:49.699Z,49.60
2018-09-15T06:15:17.795Z,46.40
2018-09-15T06:17:46.084Z,45.90
2018-09-15T06:20:14.126Z,43.40
2018-09-15T06:22:42.410Z,44.00
2018-09-15T06:25:10.483Z,42.50
2018-09-15T06:27:38.566Z,43.80
2018-09-15T06:30:07.481Z,39.80
2018-09-15T06:32:36.793Z,40.90
2018-09-15T06:35:05.026Z,41.70
2018-09-15T06:37:33.079Z,38.90
2018-09-15T06:40:01.259Z,38.00
2018-09-15T06:45:03.999Z,37.40
2018-09-15T06:47:32.344Z,35.10
2018-09-15T06:50:00.473Z,35.30
2018-09-15T06:52:28.534Z,33.30
2018-09-15T06:54:56.663Z,32.70
2018-09-15T06:57:24.683Z,31.40
2018-09-15T06:59:52.788Z,29.40
2018-09-15T07:02:20.998Z,29.20
2018-09-15T07:04:49.139Z,28.50
2018-09-15T07:07:17.151Z,28.00
2018-09-15T07:09:45.247Z,28.50
2018-09-15T07:12:13.356Z,28.00
2018-09-15T07:14:41.422Z,27.40
2018-09-15T07:17:09.515Z,26.50
2018-09-15T07:19:37.780Z,27.00
2018-09-15T07:22:05.797Z,26.90
2018-09-15T07:24:34.087Z,27.20
2018-09-15T07:27:02.101Z,27.20
2018-09-15T07:29:30.122Z,26.50
2018-09-15T07:31:58.503Z,26.40
2018-09-15T07:34:26.695Z,25.20
2018-09-15T07:36:54.802Z,25.70
2018-09-15T07:39:23.057Z,24.60
2018-09-15T07:41:51.075Z,24.60
2018-09-15T07:44:19.099Z,26.10
2018-09-15T07:46:47.155Z,25.10
2018-09-15T07:49:15.226Z,23.50
2018-09-15T07:51:43.325Z,23.90
2018-09-15T07:54:11.753Z,24.60
2018-09-15T07:56:39.754Z,23.90
2018-09-15T07:59:08.174Z,24.60
2018-09-15T08:01:36.456Z,23.60
2018-09-15T08:04:04.594Z,22.50
2018-09-15T08:06:32.649Z,22.60
2018-09-15T08:09:00.833Z,21.90
2018-09-15T08:11:28.903Z,23.00
2018-09-15T08:13:57.044Z,24.00
2018-09-15T08:16:25.250Z,22.70
2018-09-15T08:18:53.387Z,21.50
2018-09-15T08:21:21.472Z,21.70
2018-09-15T08:23:49.660Z,21.20
2018-09-15T08:26:17.841Z,21.10
2018-09-15T08:28:45.912Z,21.30
2018-09-15T08:31:14.046Z,20.70
2018-09-15T08:33:42.066Z,21.40
2018-09-15T08:36:11.189Z,20.50
2018-09-15T08:38:39.471Z,20.20
2018-09-15T08:41:23.480Z,21.30
2018-09-15T08:41:56.568Z,21.70
2018-09-15T08:42:29.591Z,21.70
2018-09-15T08:43:02.688Z,21.50
2018-09-15T08:43:35.715Z,21.20
2018-09-15T08:44:08.959Z,21.60
2018-09-15T08:44:42.003Z,21.30
2018-09-15T08:45:15.104Z,21.50
2018-09-15T08:45:50.247Z,22.40
2018-09-15T08:46:23.296Z,21.40
2018-09-15T08:46:57.405Z,21.70
2018-09-15T08:47:30.485Z,22.00
2018-09-15T08:48:03.546Z,21.60
2018-09-15T08:48:36.639Z,22.00
2018-09-15T08:49:10.209Z,22.40
2018-09-15T08:49:43.246Z,22.70
2018-09-15T08:50:16.367Z,22.70
2018-09-15T08:50:49.508Z,22.90
2018-09-15T08:51:22.559Z,22.60
2018-09-15T08:51:55.688Z,22.80
2018-09-15T08:52:29.418Z,23.10
2018-09-15T08:53:02.428Z,22.50
2018-09-15T08:53:35.439Z,23.00
2018-09-15T08:54:09.492Z,23.00
2018-09-15T08:54:42.509Z,22.20
2018-09-15T08:55:15.574Z,23.00
2018-09-15T08:55:48.760Z,22.30
2018-09-15T08:56:21.782Z,22.00
2018-09-15T08:56:54.822Z,21.40
2018-09-15T08:57:28.007Z,21.40
2018-09-15T08:58:01.022Z,21.60
2018-09-15T08:58:34.057Z,21.50
2018-09-15T08:59:07.100Z,20.90
2018-09-15T08:59:40.274Z,21.70
2018-09-15T09:00:13.373Z,21.70
2018-09-15T09:00:46.405Z,21.10
2018-09-15T09:01:19.705Z,21.10
2018-09-15T09:01:52.882Z,21.40
2018-09-15T09:02:25.960Z,22.00
2018-09-15T09:02:59.131Z,21.00
2018-09-15T09:03:32.198Z,20.80
2018-09-15T09:04:05.252Z,21.00
2018-09-15T09:04:38.255Z,21.30
2018-09-15T09:05:11.419Z,21.40
2018-09-15T09:05:44.445Z,21.60
2018-09-15T09:06:17.804Z,22.10
2018-09-15T09:06:50.883Z,21.50
2018-09-15T09:07:24.048Z,22.20
2018-09-15T09:07:57.071Z,22.00
2018-09-15T09:08:30.111Z,21.80
2018-09-15T09:09:03.549Z,21.50
2018-09-15T09:09:36.565Z,21.80
2018-09-15T09:10:09.828Z,22.10
2018-09-15T09:10:42.822Z,22.70
2018-09-15T09:11:15.864Z,22.70
2018-09-15T09:11:49.002Z,23.10
2018-09-15T09:12:22.237Z,22.70
2018-09-15T09:12:55.415Z,23.70
2018-09-15T09:13:28.510Z,22.60
2018-09-15T09:14:01.762Z,23.00
2018-09-15T09:14:34.788Z,22.80
2018-09-15T09:15:08.015Z,22.60
2018-09-15T09:15:41.027Z,22.60
2018-09-15T09:16:14.272Z,23.10
2018-09-15T09:16:47.342Z,22.90
2018-09-15T09:17:20.403Z,22.70
2018-09-15T09:17:53.482Z,23.10
2018-09-15T09:18:26.581Z,22.80
2018-09-15T09:18:59.674Z,22.90
2018-09-15T09:19:32.806Z,22.50
2018-09-15T09:20:05.922Z,22.60
2018-09-15T09:20:38.862Z,23.00
2018-09-15T09:21:12.134Z,23.20
2018-09-15T09:21:45.342Z,23.30
2018-09-15T09:22:18.704Z,23.20
2018-09-15T09:22:51.714Z,23.80
2018-09-15T09:23:24.739Z,23.90
2018-09-15T09:23:57.954Z,23.80
2018-09-15T09:24:30.992Z,23.50
2018-09-15T09:25:04.078Z,23.50
2018-09-15T09:25:37.172Z,23.90
2018-09-15T09:26:10.360Z,24.20
2018-09-15T09:26:43.564Z,24.10
2018-09-15T09:27:16.700Z,24.30
2018-09-15T09:27:49.720Z,24.80
2018-09-15T09:28:23.006Z,25.20
2018-09-15T09:28:56.659Z,25.20
2018-09-15T09:29:29.688Z,25.00
2018-09-15T09:30:02.700Z,25.70
2018-09-15T09:30:35.994Z,26.00
2018-09-15T09:31:11.394Z,26.00
2018-09-15T09:31:44.569Z,26.20
2018-09-15T09:32:17.654Z,26.20
2018-09-15T09:32:50.714Z,26.30
2018-09-15T09:33:23.816Z,26.90
2018-09-15T09:33:56.875Z,27.10
2018-09-15T09:34:29.926Z,27.30
2018-09-15T09:35:02.963Z,27.40
2018-09-15T09:35:36.196Z,27.50
2018-09-15T09:36:09.300Z,27.40
2018-09-15T09:36:42.434Z,27.50
2018-09-15T09:37:15.482Z,27.60
2018-09-15T09:37:48.539Z,27.00
2018-09-15T09:38:21.946Z,26.70
2018-09-15T09:38:54.986Z,26.90
2018-09-15T09:39:27.995Z,27.20
2018-09-15T09:40:01.071Z,26.30
2018-09-15T09:40:34.552Z,26.50
2018-09-15T09:41:08.038Z,26.50
2018-09-15T09:41:41.656Z,26.60
2018-09-15T09:42:14.875Z,26.30
2018-09-15T09:42:49.010Z,26.20
2018-09-15T09:43:22.296Z,26.30
2018-09-15T09:43:55.604Z,25.90
2018-09-15T09:44:29.217Z,26.20
2018-09-15T09:45:02.693Z,25.90
2018-09-15T09:45:35.736Z,25.60
2018-09-15T09:46:09.551Z,25.60
2018-09-15T09:46:42.855Z,25.60
2018-09-15T09:47:15.902Z,25.60
2018-09-15T09:47:49.291Z,25.70
2018-09-15T09:48:22.523Z,25.50
2018-09-15T09:48:55.747Z,26.00
2018-09-15T09:49:28.805Z,26.20
2018-09-15T09:50:01.860Z,26.30
2018-09-15T09:50:35.288Z,26.40
2018-09-15T09:51:08.383Z,26.40
2018-09-15T09:51:41.403Z,26.40
2018-09-15T09:52:14.565Z,26.30
2018-09-15T09:52:47.708Z,26.40
2018-09-15T09:53:20.854Z,26.50
2018-09-15T09:53:53.933Z,26.60
2018-09-15T09:54:26.974Z,27.00
2018-09-15T09:55:00.069Z,27.30
2018-09-15T09:55:34.281Z,27.60
2018-09-15T09:56:07.929Z,27.70
2018-09-15T09:56:40.988Z,27.70
2018-09-15T09:57:14.115Z,28.00
2018-09-15T09:57:47.291Z,28.00
2018-09-15T09:58:20.515Z,27.90
2018-09-15T09:58:53.680Z,28.10
2018-09-15T09:59:26.896Z,28.30
2018-09-15T10:00:00.043Z,29.00
2018-09-15T10:00:38.627Z,28.60
2018-09-15T10:01:34.059Z,28.30
2018-09-15T10:02:12.799Z,28.90
2018-09-15T10:02:45.915Z,28.40
2018-09-15T10:03:18.959Z,28.50
2018-09-15T10:03:52.388Z,28.70
2018-09-15T10:04:25.465Z,28.60
2018-09-15T10:04:58.647Z,29.20
2018-09-15T10:05:31.798Z,29.30
2018-09-15T10:06:07.062Z,29.50
2018-09-15T10:06:40.088Z,29.50
2018-09-15T10:07:13.122Z,29.50
2018-09-15T10:07:46.122Z,29.60
2018-09-15T10:08:19.167Z,29.70
2018-09-15T10:08:52.459Z,29.40
2018-09-15T10:09:26.052Z,29.50
2018-09-15T10:09:59.091Z,29.60
2018-09-15T10:10:32.149Z,29.80
2018-09-15T10:11:05.331Z,29.60
2018-09-15T10:11:40.653Z,30.20
2018-09-15T10:12:13.942Z,29.80
2018-09-15T10:12:46.942Z,29.90
2018-09-15T10:13:20.155Z,30.20
2018-09-15T10:13:53.337Z,30.20
2018-09-15T10:14:26.456Z,30.40
2018-09-15T10:14:59.515Z,30.70
2018-09-15T10:16:12.925Z,31.20
2018-09-15T10:16:46.034Z,31.30
2018-09-15T10:17:19.307Z,31.40
2018-09-15T10:17:52.355Z,31.40
2018-09-15T10:18:25.511Z,31.40
2018-09-15T10:18:58.694Z,31.30
2018-09-15T10:19:32.343Z,31.80
2018-09-15T10:20:05.586Z,32.40
2018-09-15T10:20:38.651Z,32.70
2018-09-15T10:21:12.043Z,32.60
2018-09-15T10:21:45.159Z,32.70
2018-09-15T10:22:18.180Z,32.90
2018-09-15T10:22:51.233Z,33.10
2018-09-15T10:23:24.357Z,33.30
2018-09-15T10:23:57.386Z,33.20
2018-09-15T10:24:30.455Z,33.60
2018-09-15T10:25:03.590Z,34.00
2018-09-15T10:25:36.769Z,34.10
2018-09-15T10:26:09.941Z,34.30
2018-09-15T10:26:43.003Z,34.50
2018-09-15T10:27:16.023Z,34.60
2018-09-15T10:27:49.146Z,34.80
2018-09-15T10:28:22.262Z,34.80
2018-09-15T10:28:55.276Z,34.80
2018-09-15T10:29:28.438Z,34.80
2018-09-15T10:30:01.603Z,35.20
2018-09-15T10:30:34.640Z,35.20
2018-09-15T10:31:07.872Z,35.40
2018-09-15T10:31:41.468Z,35.60
2018-09-15T10:32:14.692Z,35.40
2018-09-15T10:32:47.710Z,35.60
2018-09-15T10:33:20.902Z,35.70
2018-09-15T10:33:54.031Z,35.50
2018-09-15T10:34:27.055Z,35.60
2018-09-15T10:35:00.126Z,35.70
2018-09-15T10:35:33.404Z,35.70
2018-09-15T10:36:06.734Z,36.00
2018-09-15T10:36:39.788Z,35.70
2018-09-15T10:37:12.806Z,35.80
2018-09-15T10:37:45.909Z,36.10
2018-09-15T10:38:19.084Z,36.10
2018-09-15T10:38:52.095Z,36.10
2018-09-15T10:39:25.678Z,36.20
2018-09-15T10:39:58.150Z,36.60
2018-09-15T10:40:31.252Z,36.60
2018-09-15T10:41:04.617Z,36.50
2018-09-15T10:41:37.647Z,36.60
2018-09-15T10:42:10.910Z,36.60
2018-09-15T10:42:43.953Z,36.80
2018-09-15T10:43:16.991Z,36.90
2018-09-15T10:43:50.070Z,37.10
2018-09-15T10:44:23.176Z,37.10
2018-09-15T10:44:56.196Z,37.90
2018-09-15T10:45:29.326Z,37.90
2018-09-15T10:46:02.515Z,37.40
2018-09-15T10:46:35.575Z,37.40
2018-09-15T10:47:08.594Z,37.40
2018-09-15T10:47:41.770Z,37.50
2018-09-15T10:48:14.865Z,37.40
2018-09-15T10:48:48.486Z,37.50
2018-09-15T10:49:21.630Z,37.50
2018-09-15T10:49:54.818Z,37.50
2018-09-15T10:50:27.972Z,37.40
2018-09-15T10:51:01.018Z,37.10
2018-09-15T10:51:34.147Z,36.90
2018-09-15T10:52:07.341Z,36.90
2018-09-15T10:52:40.418Z,36.70
2018-09-15T10:53:13.483Z,36.70
2018-09-15T10:53:46.482Z,36.80
2018-09-15T10:54:19.484Z,36.60
2018-09-15T10:54:52.600Z,36.80
2018-09-15T10:55:25.834Z,36.90
2018-09-15T10:55:59.275Z,36.90
2018-09-15T10:56:32.463Z,37.00
2018-09-15T10:57:05.980Z,37.10
2018-09-15T10:57:38.987Z,37.20
2018-09-15T10:58:12.017Z,37.80
2018-09-15T10:58:45.035Z,37.30
2018-09-15T10:59:18.739Z,37.40
2018-09-15T10:59:51.765Z,37.60
2018-09-15T11:00:25.139Z,37.70
2018-09-15T11:03:48.756Z,38.20
2018-09-15T11:04:21.794Z,38.10
2018-09-15T11:04:55.052Z,38.00
2018-09-15T11:05:28.079Z,37.90
2018-09-15T11:06:01.635Z,37.90
2018-09-15T11:06:34.567Z,37.80
2018-09-15T11:07:07.787Z,37.80
2018-09-15T11:07:40.848Z,37.70
2018-09-15T11:08:13.886Z,38.40
2018-09-15T11:08:46.910Z,37.80
2018-09-15T11:09:20.253Z,37.90
2018-09-15T11:09:53.334Z,37.90
2018-09-15T11:10:26.421Z,37.80
2018-09-15T11:10:59.517Z,37.80
2018-09-15T11:11:32.577Z,37.30
2018-09-15T11:12:05.599Z,37.70
2018-09-15T11:12:38.614Z,37.80
2018-09-15T11:13:11.804Z,37.50
2018-09-15T11:13:44.903Z,37.60
2018-09-15T11:14:18.123Z,37.70
2018-09-15T11:14:51.238Z,37.60
2018-09-15T11:15:24.282Z,37.80
2018-09-15T11:15:57.314Z,38.20
2018-09-15T11:16:30.394Z,38.60
2018-09-15T11:17:03.404Z,38.90
2018-09-15T11:17:36.463Z,38.80
2018-09-15T11:18:09.551Z,39.00
2018-09-15T11:18:42.561Z,39.10
2018-09-15T11:19:15.599Z,39.00
2018-09-15T11:19:48.679Z,39.10
2018-09-15T11:20:21.886Z,38.90
2018-09-15T11:20:55.042Z,38.80
2018-09-15T11:21:28.273Z,38.80
2018-09-15T11:22:01.486Z,38.70
2018-09-15T11:22:35.008Z,38.70
2018-09-15T11:23:08.011Z,38.60
2018-09-15T11:23:41.076Z,38.70
2018-09-15T11:24:14.110Z,38.60
2018-09-15T11:24:47.137Z,38.50
2018-09-15T11:25:20.183Z,38.50
2018-09-15T11:25:53.466Z,38.40
2018-09-15T11:26:26.574Z,38.50
2018-09-15T11:26:59.815Z,38.50
2018-09-15T11:27:32.851Z,38.60
2018-09-15T11:28:05.940Z,38.50
2018-09-15T11:28:39.056Z,38.40
2018-09-15T11:29:12.063Z,38.40
2018-09-15T11:29:45.165Z,38.30
2018-09-15T11:30:18.257Z,38.10
2018-09-15T11:30:51.275Z,38.10
2018-09-15T11:31:24.284Z,38.00
2018-09-15T11:31:57.360Z,38.00
2018-09-15T11:32:30.532Z,38.10
2018-09-15T11:33:03.594Z,37.90
2018-09-15T11:33:36.588Z,38.00
2018-09-15T11:34:09.843Z,38.10
2018-09-15T11:34:43.051Z,37.90
2018-09-15T11:35:16.269Z,37.80
2018-09-15T11:35:49.523Z,37.60
2018-09-15T11:36:23.126Z,37.70
2018-09-15T11:36:56.226Z,37.90
2018-09-15T11:37:29.355Z,38.10
2018-09-15T11:38:02.634Z,38.00
2018-09-15T11:38:35.819Z,38.00
2018-09-15T11:39:10.446Z,37.90
2018-09-15T11:39:43.625Z,38.10
2018-09-15T11:40:16.995Z,38.20
2018-09-15T11:40:50.095Z,38.40
2018-09-15T11:41:23.284Z,38.40
2018-09-15T11:41:56.327Z,38.70
2018-09-15T11:42:29.362Z,38.90
2018-09-15T11:43:02.380Z,39.00
2018-09-15T11:43:35.420Z,39.20
2018-09-15T11:44:08.843Z,39.20
2018-09-15T11:44:42.199Z,39.20
2018-09-15T11:45:15.311Z,39.10
2018-09-15T11:45:48.415Z,39.30
2018-09-15T11:46:21.443Z,39.30
2018-09-15T11:46:54.455Z,39.60
2018-09-15T11:47:27.613Z,39.10
2018-09-15T11:48:00.906Z,39.20
2018-09-15T11:48:35.436Z,38.90
2018-09-15T11:49:08.636Z,38.90
2018-09-15T11:49:41.758Z,38.70
2018-09-15T11:50:15.011Z,38.80
2018-09-15T11:50:48.186Z,38.60
2018-09-15T11:51:22.285Z,38.50
2018-09-15T11:51:55.499Z,38.80
2018-09-15T11:52:28.994Z,38.70
2018-09-15T11:53:02.133Z,38.80
2018-09-15T11:53:35.290Z,38.60
2018-09-15T11:54:08.303Z,38.60
2018-09-15T11:54:41.389Z,38.50
2018-09-15T11:55:14.443Z,38.60
2018-09-15T11:55:47.771Z,38.40
2018-09-15T11:56:20.909Z,38.30
2018-09-15T11:56:53.940Z,38.20
2018-09-15T11:57:27.339Z,39.10
2018-09-15T11:58:00.608Z,38.20
2018-09-15T11:58:33.635Z,38.40
2018-09-15T11:59:06.643Z,38.00
2018-09-15T11:59:39.688Z,37.90
2018-09-15T12:00:12.721Z,37.90
2018-09-15T12:01:02.407Z,37.80
2018-09-15T12:01:35.665Z,37.70
2018-09-15T12:02:08.959Z,37.80
2018-09-15T12:02:41.955Z,37.80
2018-09-15T12:03:15.229Z,37.90
2018-09-15T12:03:48.257Z,37.90
2018-09-15T12:04:21.415Z,38.00
2018-09-15T12:04:54.470Z,38.00
2018-09-15T12:05:27.618Z,38.00
2018-09-15T12:06:00.894Z,38.10
2018-09-15T12:06:34.215Z,38.00
2018-09-15T12:07:07.429Z,37.80
2018-09-15T12:07:40.639Z,37.90
2018-09-15T12:08:13.839Z,37.80
2018-09-15T12:08:46.902Z,38.10
2018-09-15T12:09:19.918Z,38.20
2018-09-15T12:09:52.963Z,38.00
2018-09-15T12:10:26.170Z,38.20
2018-09-15T12:10:59.699Z,38.40
2018-09-15T12:11:32.809Z,38.30
2018-09-15T12:12:05.930Z,38.40
2018-09-15T12:12:38.978Z,38.30
2018-09-15T12:13:12.016Z,38.30
2018-09-15T12:13:45.203Z,38.40
2018-09-15T12:14:18.501Z,38.50
2018-09-15T12:14:51.503Z,38.30
2018-09-15T12:15:24.564Z,38.20
2018-09-15T12:15:57.935Z,38.50
2018-09-15T12:16:30.982Z,38.50
2018-09-15T12:17:04.047Z,38.30
2018-09-15T12:17:37.072Z,38.30
2018-09-15T12:18:10.195Z,38.30
2018-09-15T12:18:44.074Z,38.40
2018-09-15T12:19:17.216Z,38.50
2018-09-15T12:19:50.484Z,38.50
2018-09-15T12:20:23.624Z,38.50
2018-09-15T12:20:56.971Z,38.50
2018-09-15T12:21:30.258Z,38.60
2018-09-15T12:22:03.340Z,38.80
2018-09-15T12:22:37.267Z,38.70
2018-09-15T12:23:10.325Z,38.50
2018-09-15T12:23:43.481Z,38.20
2018-09-15T12:24:16.628Z,38.30
2018-09-15T12:24:49.862Z,38.50
2018-09-15T12:25:22.994Z,38.40
2018-09-15T12:25:56.250Z,38.20
2018-09-15T12:26:29.375Z,38.10
2018-09-15T12:27:02.414Z,38.00
2018-09-15T12:27:35.499Z,37.80
2018-09-15T12:28:09.246Z,37.50
2018-09-15T12:28:42.286Z,37.30
2018-09-15T12:29:15.376Z,37.50
2018-09-15T12:29:48.386Z,37.20
2018-09-15T12:30:21.403Z,37.10
2018-09-15T12:30:54.563Z,37.20
2018-09-15T12:31:27.665Z,37.20
2018-09-15T12:32:00.732Z,37.10
2018-09-15T12:32:33.929Z,37.40
2018-09-15T12:33:06.959Z,37.20
2018-09-15T12:33:40.248Z,37.30
2018-09-15T12:34:13.228Z,36.60
2018-09-15T12:34:46.332Z,37.10
2018-09-15T12:35:19.380Z,37.20
2018-09-15T12:35:52.687Z,36.80
2018-09-15T12:36:26.116Z,36.80
2018-09-15T12:36:59.154Z,36.50
2018-09-15T12:37:32.310Z,36.30
2018-09-15T12:38:05.466Z,36.60
2018-09-15T12:38:38.648Z,36.70
2018-09-15T12:39:11.673Z,36.40
2018-09-15T12:39:44.678Z,36.40
2018-09-15T12:40:17.798Z,36.50
2018-09-15T12:40:50.885Z,36.60
2018-09-15T12:41:24.063Z,36.40
2018-09-15T12:41:57.134Z,36.60
2018-09-15T12:42:30.288Z,36.70
2018-09-15T12:43:03.482Z,36.40
2018-09-15T12:43:36.644Z,36.50
2018-09-15T12:44:09.821Z,36.20
2018-09-15T12:44:43.008Z,36.20
2018-09-15T12:45:16.086Z,36.00
2018-09-15T12:45:49.202Z,36.30
2018-09-15T12:46:22.359Z,36.10
2018-09-15T12:46:55.527Z,36.10
2018-09-15T12:47:28.575Z,35.70
2018-09-15T12:48:01.638Z,36.10
2018-09-15T12:48:34.639Z,36.20
2018-09-15T12:49:07.979Z,36.30
2018-09-15T12:49:41.175Z,36.10
2018-09-15T12:50:14.252Z,36.20
2018-09-15T12:50:47.397Z,35.80
2018-09-15T12:51:20.641Z,35.60
2018-09-15T12:51:53.728Z,35.50
2018-09-15T12:52:26.922Z,35.30
2018-09-15T12:52:59.894Z,35.10
2018-09-15T12:53:33.002Z,35.20
2018-09-15T12:54:06.751Z,35.20
2018-09-15T12:54:39.789Z,35.10
2018-09-15T12:55:12.826Z,35.00
2018-09-15T12:55:46.084Z,35.10
2018-09-15T12:56:19.266Z,35.10
2018-09-15T12:56:52.288Z,35.10
2018-09-15T12:57:25.496Z,35.10
2018-09-15T12:57:58.686Z,35.20
2018-09-15T12:58:31.727Z,35.80
2018-09-15T12:59:04.815Z,35.00
2018-09-15T12:59:37.962Z,34.90
2018-09-15T13:00:10.997Z,35.40
2018-09-15T13:00:44.199Z,35.50
2018-09-15T13:01:17.291Z,35.20
2018-09-15T13:01:50.509Z,35.40
2018-09-15T13:02:24.291Z,35.60
2018-09-15T13:02:57.587Z,35.60
2018-09-15T13:03:30.697Z,35.70
2018-09-15T13:04:03.739Z,35.80
2018-09-15T13:04:37.754Z,35.90
2018-09-15T13:05:11.004Z,35.90
2018-09-15T13:05:44.187Z,35.90
2018-09-15T13:06:17.196Z,35.90
2018-09-15T13:06:50.695Z,35.90
2018-09-15T13:07:23.913Z,36.00
2018-09-15T13:07:57.023Z,36.10
2018-09-15T13:08:30.085Z,35.80
2018-09-15T13:09:03.583Z,35.90
2018-09-15T13:09:36.594Z,35.90
2018-09-15T13:10:09.613Z,36.30
2018-09-15T13:10:42.718Z,36.40
2018-09-15T13:11:15.855Z,36.10
2018-09-15T13:11:48.886Z,36.20
2018-09-15T13:12:21.909Z,36.20
2018-09-15T13:12:55.119Z,36.30
2018-09-15T13:13:28.147Z,36.10
2018-09-15T13:14:01.172Z,36.30
2018-09-15T13:14:34.206Z,36.30
2018-09-15T13:15:07.383Z,36.30
2018-09-15T13:15:40.475Z,36.30
2018-09-15T13:16:13.567Z,36.30
2018-09-15T13:16:46.615Z,37.00
2018-09-15T13:17:19.693Z,36.30
2018-09-15T13:17:52.799Z,36.40
2018-09-15T13:18:25.849Z,36.60
2018-09-15T13:18:59.152Z,36.60
2018-09-15T13:19:33.019Z,36.80
2018-09-15T13:20:06.559Z,37.00
2018-09-15T13:20:39.903Z,37.10
2018-09-15T13:21:12.994Z,37.00
2018-09-15T13:21:46.108Z,37.10
2018-09-15T13:22:19.152Z,37.30
2018-09-15T13:22:52.395Z,37.60
2018-09-15T13:23:26.310Z,37.60
2018-09-15T13:23:59.388Z,37.80
2018-09-15T13:24:33.433Z,37.70
2018-09-15T13:25:06.699Z,37.90
2018-09-15T13:25:39.855Z,38.10
2018-09-15T13:26:12.871Z,37.60
2018-09-15T13:26:45.929Z,38.10
2018-09-15T13:27:18.944Z,38.10
2018-09-15T13:27:52.157Z,38.70
2018-09-15T13:28:25.257Z,37.90
2018-09-15T13:28:58.314Z,38.00
2018-09-15T13:29:31.514Z,38.20
2018-09-15T13:30:05.012Z,38.20
2018-09-15T13:30:38.046Z,38.30
2018-09-15T13:31:11.368Z,38.40
2018-09-15T13:31:44.375Z,38.30
2018-09-15T13:32:17.445Z,38.30
2018-09-15T13:32:50.483Z,38.20
2018-09-15T13:33:23.666Z,38.30
2018-09-15T13:33:56.682Z,38.30
2018-09-15T13:34:29.728Z,38.40
2018-09-15T13:35:02.745Z,38.40
2018-09-15T13:35:35.747Z,38.40
2018-09-15T13:36:09.220Z,38.40
2018-09-15T13:36:44.171Z,38.30
2018-09-15T13:37:17.442Z,38.20
2018-09-15T13:37:50.697Z,38.30
2018-09-15T13:38:24.009Z,38.30
2018-09-15T13:38:57.843Z,38.20
2018-09-15T13:39:30.866Z,38.20
2018-09-15T13:40:04.586Z,38.90
2018-09-15T13:40:37.713Z,38.20
2018-09-15T13:41:10.839Z,38.20
2018-09-15T13:41:44.071Z,38.10
2018-09-15T13:42:17.314Z,38.20
2018-09-15T13:42:50.354Z,38.20
2018-09-15T13:43:23.519Z,38.10
2018-09-15T13:43:56.717Z,38.00
2018-09-15T13:44:30.036Z,38.00
2018-09-15T13:45:03.089Z,38.00
2018-09-15T13:45:36.258Z,38.10
2018-09-15T13:46:09.417Z,38.20
2018-09-15T13:46:42.761Z,37.90
2018-09-15T13:47:15.762Z,37.60
2018-09-15T13:47:49.084Z,37.80
2018-09-15T13:48:22.307Z,37.40
2018-09-15T13:48:55.356Z,37.60
2018-09-15T13:49:28.403Z,37.60
2018-09-15T13:50:01.470Z,37.70
2018-09-15T13:50:34.798Z,37.70
2018-09-15T13:51:07.935Z,37.60
2018-09-15T13:51:41.036Z,37.40
2018-09-15T13:52:14.238Z,37.60
2018-09-15T13:52:47.907Z,37.60
2018-09-15T13:53:21.007Z,37.60
2018-09-15T13:53:55.026Z,37.50
2018-09-15T13:54:28.248Z,37.40
2018-09-15T13:55:01.363Z,37.40
2018-09-15T13:55:34.542Z,37.10
2018-09-15T13:56:07.651Z,37.10
2018-09-15T13:56:40.700Z,37.10
2018-09-15T13:57:13.731Z,37.20